Portada
METAR-TAF:

METAR-TAF

Aeropuertos :

Muscatine, Iowa, Estados Unidos

latitud: 41-22N, longitud: 091-09W, altitud: 167 m

Observación

El informe se hizo hace 16 minutos, a las 07:55 UTC
Viento calma
Temperatura 12°C
Humedad 82%
Presión 1025 hPa
Visibilidad: 16.1 km
Cielo despejado

METAR: KMUT 310755Z AUTO 00000KT 10SM CLR 12/09 A3027 RMK AO2

Hora: 03:11 (08:11 UTC)


TAF: falta

Observaciones y pronósticos meteorológicos de más de 4000 aeropuertos (mensajes METAR y TAF).

Los puntos amarillos y rojos representan las estaciones disponibles.

Ponga el ratón en el punto deseado para ver el nombre de la estación.

Haga clic para ver las observaciones y los pronósticos meteorológicos.

Para cambiar el mapa : haga clic en los botones verdes con una cruz de color negro para hacer un zoom, en el botón verde con un guión para alejar o en las flechas verdes para mapas adyacentes.


METAR-TAF: